sensor_id;sensor_type;location;lat;lon;timestamp;temperature;humidity
47174;DHT22;36730;49.036;9.094;2024-02-15T00:00:02;26.10;61.00
47174;DHT22;36730;49.036;9.094;2024-02-15T00:02:28;26.00;61.00
47174;DHT22;36730;49.036;9.094;2024-02-15T00:04:54;26.00;61.10
47174;DHT22;36730;49.036;9.094;2024-02-15T00:07:19;26.10;60.80
47174;DHT22;36730;49.036;9.094;2024-02-15T00:09:47;26.10;60.70
47174;DHT22;36730;49.036;9.094;2024-02-15T00:12:13;26.00;60.70
47174;DHT22;36730;49.036;9.094;2024-02-15T00:14:38;26.00;60.70
47174;DHT22;36730;49.036;9.094;2024-02-15T00:17:04;26.10;60.70
47174;DHT22;36730;49.036;9.094;2024-02-15T00:19:30;26.00;60.70
47174;DHT22;36730;49.036;9.094;2024-02-15T00:21:55;26.00;60.70
47174;DHT22;36730;49.036;9.094;2024-02-15T00:24:21;26.00;61.00
47174;DHT22;36730;49.036;9.094;2024-02-15T00:26:47;26.00;60.70
47174;DHT22;36730;49.036;9.094;2024-02-15T00:29:13;26.00;60.70
47174;DHT22;36730;49.036;9.094;2024-02-15T00:31:39;26.00;60.70
47174;DHT22;36730;49.036;9.094;2024-02-15T00:34:05;26.00;60.70
47174;DHT22;36730;49.036;9.094;2024-02-15T00:36:31;26.00;60.80
47174;DHT22;36730;49.036;9.094;2024-02-15T00:38:57;26.00;60.70
47174;DHT22;36730;49.036;9.094;2024-02-15T00:41:23;25.90;61.00
47174;DHT22;36730;49.036;9.094;2024-02-15T00:43:48;25.90;60.80
47174;DHT22;36730;49.036;9.094;2024-02-15T00:46:17;25.90;60.80
47174;DHT22;36730;49.036;9.094;2024-02-15T00:48:43;25.90;60.80
47174;DHT22;36730;49.036;9.094;2024-02-15T00:51:08;25.90;60.70
47174;DHT22;36730;49.036;9.094;2024-02-15T00:53:34;25.90;60.70
47174;DHT22;36730;49.036;9.094;2024-02-15T00:55:59;25.90;61.00
47174;DHT22;36730;49.036;9.094;2024-02-15T00:58:25;25.90;60.80
47174;DHT22;36730;49.036;9.094;2024-02-15T01:00:52;25.90;60.90
47174;DHT22;36730;49.036;9.094;2024-02-15T01:03:18;25.90;61.00
47174;DHT22;36730;49.036;9.094;2024-02-15T01:05:44;25.90;60.90
47174;DHT22;36730;49.036;9.094;2024-02-15T01:08:10;25.90;60.70
47174;DHT22;36730;49.036;9.094;2024-02-15T01:10:36;25.90;60.70
47174;DHT22;36730;49.036;9.094;2024-02-15T01:13:02;25.90;60.70
47174;DHT22;36730;49.036;9.094;2024-02-15T01:15:27;25.90;60.60
47174;DHT22;36730;49.036;9.094;2024-02-15T01:17:53;25.90;60.90
47174;DHT22;36730;49.036;9.094;2024-02-15T01:20:18;25.80;60.60
47174;DHT22;36730;49.036;9.094;2024-02-15T01:22:44;25.80;60.60
47174;DHT22;36730;49.036;9.094;2024-02-15T01:25:12;25.90;61.00
47174;DHT22;36730;49.036;9.094;2024-02-15T01:27:38;25.80;60.70
47174;DHT22;36730;49.036;9.094;2024-02-15T01:30:04;25.90;60.70
47174;DHT22;36730;49.036;9.094;2024-02-15T01:32:30;25.80;60.50
47174;DHT22;36730;49.036;9.094;2024-02-15T01:34:56;25.90;60.60
47174;DHT22;36730;49.036;9.094;2024-02-15T01:37:21;25.80;60.70
47174;DHT22;36730;49.036;9.094;2024-02-15T01:39:47;25.80;60.50
47174;DHT22;36730;49.036;9.094;2024-02-15T01:42:12;25.80;60.60
47174;DHT22;36730;49.036;9.094;2024-02-15T01:44:40;25.80;60.60
47174;DHT22;36730;49.036;9.094;2024-02-15T01:47:05;25.80;60.70
47174;DHT22;36730;49.036;9.094;2024-02-15T01:49:31;25.80;60.60
47174;DHT22;36730;49.036;9.094;2024-02-15T01:51:57;25.80;60.60
47174;DHT22;36730;49.036;9.094;2024-02-15T01:54:24;25.80;60.40
47174;DHT22;36730;49.036;9.094;2024-02-15T01:56:50;25.80;60.60
47174;DHT22;36730;49.036;9.094;2024-02-15T01:59:15;25.80;60.70
47174;DHT22;36730;49.036;9.094;2024-02-15T02:01:41;25.80;60.70
47174;DHT22;36730;49.036;9.094;2024-02-15T02:04:07;25.80;60.60
47174;DHT22;36730;49.036;9.094;2024-02-15T02:06:33;25.80;60.50
47174;DHT22;36730;49.036;9.094;2024-02-15T02:08:58;25.80;60.40
47174;DHT22;36730;49.036;9.094;2024-02-15T02:11:24;25.80;60.40
47174;DHT22;36730;49.036;9.094;2024-02-15T02:13:49;25.80;60.40
47174;DHT22;36730;49.036;9.094;2024-02-15T02:16:27;25.80;60.60
47174;DHT22;36730;49.036;9.094;2024-02-15T02:18:54;25.80;60.60
47174;DHT22;36730;49.036;9.094;2024-02-15T02:21:19;25.80;60.50
47174;DHT22;36730;49.036;9.094;2024-02-15T02:23:46;25.80;60.50
47174;DHT22;36730;49.036;9.094;2024-02-15T02:26:15;25.70;61.00
47174;DHT22;36730;49.036;9.094;2024-02-15T02:28:41;25.80;60.50
47174;DHT22;36730;49.036;9.094;2024-02-15T02:31:06;25.80;60.40
47174;DHT22;36730;49.036;9.094;2024-02-15T02:33:31;25.70;60.30
47174;DHT22;36730;49.036;9.094;2024-02-15T02:35:58;25.70;60.30
47174;DHT22;36730;49.036;9.094;2024-02-15T02:38:24;25.70;60.40
47174;DHT22;36730;49.036;9.094;2024-02-15T02:40:51;25.80;60.50
47174;DHT22;36730;49.036;9.094;2024-02-15T02:43:17;25.70;60.50
47174;DHT22;36730;49.036;9.094;2024-02-15T02:45:43;25.70;60.40
47174;DHT22;36730;49.036;9.094;2024-02-15T02:48:10;25.70;60.30
47174;DHT22;36730;49.036;9.094;2024-02-15T02:50:37;25.70;60.30
47174;DHT22;36730;49.036;9.094;2024-02-15T02:53:02;25.70;60.30
47174;DHT22;36730;49.036;9.094;2024-02-15T02:55:28;25.70;60.30
47174;DHT22;36730;49.036;9.094;2024-02-15T02:57:53;25.70;60.40
47174;DHT22;36730;49.036;9.094;2024-02-15T03:00:20;25.70;60.30
47174;DHT22;36730;49.036;9.094;2024-02-15T03:02:46;25.70;60.30
47174;DHT22;36730;49.036;9.094;2024-02-15T03:05:12;25.70;60.20
47174;DHT22;36730;49.036;9.094;2024-02-15T03:07:38;25.70;60.20
47174;DHT22;36730;49.036;9.094;2024-02-15T03:10:07;25.70;60.20
47174;DHT22;36730;49.036;9.094;2024-02-15T03:12:34;25.70;60.20
47174;DHT22;36730;49.036;9.094;2024-02-15T03:15:01;25.70;60.20
47174;DHT22;36730;49.036;9.094;2024-02-15T03:17:27;25.70;60.20
47174;DHT22;36730;49.036;9.094;2024-02-15T03:19:52;25.70;60.10
47174;DHT22;36730;49.036;9.094;2024-02-15T03:22:18;25.70;60.10
47174;DHT22;36730;49.036;9.094;2024-02-15T03:24:43;25.70;60.20
47174;DHT22;36730;49.036;9.094;2024-02-15T03:27:09;25.70;60.10
47174;DHT22;36730;49.036;9.094;2024-02-15T03:29:40;25.70;60.10
47174;DHT22;36730;49.036;9.094;2024-02-15T03:32:06;25.70;60.20
47174;DHT22;36730;49.036;9.094;2024-02-15T03:34:32;25.70;60.10
47174;DHT22;36730;49.036;9.094;2024-02-15T03:36:57;25.70;60.20
47174;DHT22;36730;49.036;9.094;2024-02-15T03:39:23;25.70;60.10
47174;DHT22;36730;49.036;9.094;2024-02-15T03:41:49;25.70;60.20
47174;DHT22;36730;49.036;9.094;2024-02-15T03:44:15;25.70;60.20
47174;DHT22;36730;49.036;9.094;2024-02-15T03:46:44;25.70;60.10
47174;DHT22;36730;49.036;9.094;2024-02-15T03:49:16;25.70;60.10
47174;DHT22;36730;49.036;9.094;2024-02-15T03:51:42;25.70;60.10
47174;DHT22;36730;49.036;9.094;2024-02-15T03:54:10;25.70;60.10
47174;DHT22;36730;49.036;9.094;2024-02-15T03:56:36;25.70;60.70
47174;DHT22;36730;49.036;9.094;2024-02-15T03:59:02;25.70;60.10
47174;DHT22;36730;49.036;9.094;2024-02-15T04:01:30;25.70;60.10
47174;DHT22;36730;49.036;9.094;2024-02-15T04:03:59;25.60;59.90
47174;DHT22;36730;49.036;9.094;2024-02-15T04:06:25;25.60;59.60
47174;DHT22;36730;49.036;9.094;2024-02-15T04:08:52;25.50;59.50
47174;DHT22;36730;49.036;9.094;2024-02-15T04:11:18;25.40;59.50
47174;DHT22;36730;49.036;9.094;2024-02-15T04:13:45;25.40;60.00
47174;DHT22;36730;49.036;9.094;2024-02-15T04:16:10;25.30;59.80
47174;DHT22;36730;49.036;9.094;2024-02-15T04:18:36;25.30;59.90
47174;DHT22;36730;49.036;9.094;2024-02-15T04:21:03;25.30;60.00
47174;DHT22;36730;49.036;9.094;2024-02-15T04:23:31;25.20;60.00
47174;DHT22;36730;49.036;9.094;2024-02-15T04:25:56;25.20;60.00
47174;DHT22;36730;49.036;9.094;2024-02-15T04:28:23;25.20;59.80
47174;DHT22;36730;49.036;9.094;2024-02-15T04:30:48;25.20;59.60
47174;DHT22;36730;49.036;9.094;2024-02-15T04:33:14;25.20;59.50
47174;DHT22;36730;49.036;9.094;2024-02-15T04:35:40;25.20;59.50
47174;DHT22;36730;49.036;9.094;2024-02-15T04:38:06;25.20;59.50
47174;DHT22;36730;49.036;9.094;2024-02-15T04:40:33;25.20;59.40
47174;DHT22;36730;49.036;9.094;2024-02-15T04:42:59;25.20;59.30
47174;DHT22;36730;49.036;9.094;2024-02-15T04:45:24;25.10;59.50
47174;DHT22;36730;49.036;9.094;2024-02-15T04:47:51;25.10;59.50
47174;DHT22;36730;49.036;9.094;2024-02-15T04:50:18;25.10;59.40
47174;DHT22;36730;49.036;9.094;2024-02-15T04:52:44;25.10;59.40
47174;DHT22;36730;49.036;9.094;2024-02-15T04:55:11;25.00;59.20
47174;DHT22;36730;49.036;9.094;2024-02-15T04:57:37;25.00;59.20
47174;DHT22;36730;49.036;9.094;2024-02-15T05:00:02;25.00;59.50
47174;DHT22;36730;49.036;9.094;2024-02-15T05:02:34;25.00;59.60
47174;DHT22;36730;49.036;9.094;2024-02-15T05:05:08;25.00;59.60
47174;DHT22;36730;49.036;9.094;2024-02-15T05:07:34;25.00;59.40
47174;DHT22;36730;49.036;9.094;2024-02-15T05:10:03;25.00;59.30
47174;DHT22;36730;49.036;9.094;2024-02-15T05:12:31;25.00;59.00
47174;DHT22;36730;49.036;9.094;2024-02-15T05:14:57;25.00;59.00
47174;DHT22;36730;49.036;9.094;2024-02-15T05:17:22;25.00;59.00
47174;DHT22;36730;49.036;9.094;2024-02-15T05:19:48;25.00;59.00
47174;DHT22;36730;49.036;9.094;2024-02-15T05:22:14;25.00;58.90
47174;DHT22;36730;49.036;9.094;2024-02-15T05:24:40;25.00;58.80
47174;DHT22;36730;49.036;9.094;2024-02-15T05:27:05;25.00;58.80
47174;DHT22;36730;49.036;9.094;2024-02-15T05:29:31;25.00;58.80
47174;DHT22;36730;49.036;9.094;2024-02-15T05:32:00;25.10;59.50
47174;DHT22;36730;49.036;9.094;2024-02-15T05:34:26;25.10;58.70
47174;DHT22;36730;49.036;9.094;2024-02-15T05:36:52;25.10;58.70
47174;DHT22;36730;49.036;9.094;2024-02-15T05:39:17;25.10;58.50
47174;DHT22;36730;49.036;9.094;2024-02-15T05:41:46;25.10;58.60
47174;DHT22;36730;49.036;9.094;2024-02-15T05:44:12;25.10;58.90
47174;DHT22;36730;49.036;9.094;2024-02-15T05:46:39;25.10;58.70
47174;DHT22;36730;49.036;9.094;2024-02-15T05:49:05;25.10;58.70
47174;DHT22;36730;49.036;9.094;2024-02-15T05:51:31;25.20;59.00
47174;DHT22;36730;49.036;9.094;2024-02-15T05:53:57;25.10;58.80
47174;DHT22;36730;49.036;9.094;2024-02-15T05:56:26;25.10;58.70
47174;DHT22;36730;49.036;9.094;2024-02-15T05:58:51;25.20;59.20
47174;DHT22;36730;49.036;9.094;2024-02-15T06:01:17;25.20;58.90
47174;DHT22;36730;49.036;9.094;2024-02-15T06:03:42;25.20;59.00
47174;DHT22;36730;49.036;9.094;2024-02-15T06:06:09;25.20;59.00
47174;DHT22;36730;49.036;9.094;2024-02-15T06:08:37;25.20;58.90
47174;DHT22;36730;49.036;9.094;2024-02-15T06:11:03;25.20;58.80
47174;DHT22;36730;49.036;9.094;2024-02-15T06:13:29;25.30;58.80
47174;DHT22;36730;49.036;9.094;2024-02-15T06:15:54;25.20;58.70
47174;DHT22;36730;49.036;9.094;2024-02-15T06:18:20;25.30;58.80
47174;DHT22;36730;49.036;9.094;2024-02-15T06:20:50;25.30;58.80
47174;DHT22;36730;49.036;9.094;2024-02-15T06:23:16;25.30;59.00
47174;DHT22;36730;49.036;9.094;2024-02-15T06:25:41;25.30;58.90
47174;DHT22;36730;49.036;9.094;2024-02-15T06:28:07;25.30;59.00
47174;DHT22;36730;49.036;9.094;2024-02-15T06:30:45;25.30;58.90
47174;DHT22;36730;49.036;9.094;2024-02-15T06:33:29;25.30;58.00
47174;DHT22;36730;49.036;9.094;2024-02-15T06:36:14;25.30;57.30
47174;DHT22;36730;49.036;9.094;2024-02-15T06:38:58;25.20;57.60
47174;DHT22;36730;49.036;9.094;2024-02-15T06:41:42;25.20;57.20
47174;DHT22;36730;49.036;9.094;2024-02-15T06:44:08;25.20;57.20
47174;DHT22;36730;49.036;9.094;2024-02-15T06:46:33;25.20;57.10
47174;DHT22;36730;49.036;9.094;2024-02-15T06:48:59;25.20;56.80
47174;DHT22;36730;49.036;9.094;2024-02-15T06:51:24;25.20;57.10
47174;DHT22;36730;49.036;9.094;2024-02-15T06:53:50;25.20;56.90
47174;DHT22;36730;49.036;9.094;2024-02-15T06:56:16;25.10;56.50
47174;DHT22;36730;49.036;9.094;2024-02-15T06:58:43;25.10;56.80
47174;DHT22;36730;49.036;9.094;2024-02-15T07:01:08;25.10;56.70
47174;DHT22;36730;49.036;9.094;2024-02-15T07:03:34;25.10;56.80
47174;DHT22;36730;49.036;9.094;2024-02-15T07:05:59;25.20;57.10
47174;DHT22;36730;49.036;9.094;2024-02-15T07:08:25;25.20;57.60
47174;DHT22;36730;49.036;9.094;2024-02-15T07:10:50;25.20;57.50
47174;DHT22;36730;49.036;9.094;2024-02-15T07:13:17;25.20;57.50
47174;DHT22;36730;49.036;9.094;2024-02-15T07:15:42;25.20;57.60
47174;DHT22;36730;49.036;9.094;2024-02-15T07:18:09;25.30;57.70
47174;DHT22;36730;49.036;9.094;2024-02-15T07:20:35;25.30;56.40
47174;DHT22;36730;49.036;9.094;2024-02-15T07:23:01;25.20;55.30
47174;DHT22;36730;49.036;9.094;2024-02-15T07:25:26;25.20;54.60
47174;DHT22;36730;49.036;9.094;2024-02-15T07:27:52;25.10;54.60
47174;DHT22;36730;49.036;9.094;2024-02-15T07:30:19;25.10;55.20
47174;DHT22;36730;49.036;9.094;2024-02-15T07:32:45;25.00;55.50
47174;DHT22;36730;49.036;9.094;2024-02-15T07:35:11;25.00;56.20
47174;DHT22;36730;49.036;9.094;2024-02-15T07:37:39;25.00;54.90
47174;DHT22;36730;49.036;9.094;2024-02-15T07:40:05;25.00;54.60
47174;DHT22;36730;49.036;9.094;2024-02-15T07:42:33;24.90;54.40
47174;DHT22;36730;49.036;9.094;2024-02-15T07:45:00;24.90;55.00
47174;DHT22;36730;49.036;9.094;2024-02-15T07:47:26;24.80;55.00
47174;DHT22;36730;49.036;9.094;2024-02-15T07:49:52;24.80;54.60
47174;DHT22;36730;49.036;9.094;2024-02-15T07:52:17;24.70;55.10
47174;DHT22;36730;49.036;9.094;2024-02-15T07:54:44;24.80;55.20
47174;DHT22;36730;49.036;9.094;2024-02-15T07:57:09;24.80;55.30
47174;DHT22;36730;49.036;9.094;2024-02-15T07:59:36;24.80;55.50
47174;DHT22;36730;49.036;9.094;2024-02-15T08:02:01;24.80;55.60
47174;DHT22;36730;49.036;9.094;2024-02-15T08:04:27;24.80;55.80
47174;DHT22;36730;49.036;9.094;2024-02-15T08:06:54;24.90;56.00
47174;DHT22;36730;49.036;9.094;2024-02-15T08:09:20;24.90;56.10
47174;DHT22;36730;49.036;9.094;2024-02-15T08:11:49;24.90;56.00
47174;DHT22;36730;49.036;9.094;2024-02-15T08:14:15;25.00;55.90
47174;DHT22;36730;49.036;9.094;2024-02-15T08:16:41;25.00;55.70
47174;DHT22;36730;49.036;9.094;2024-02-15T08:19:06;25.00;58.20
47174;DHT22;36730;49.036;9.094;2024-02-15T08:21:33;25.00;56.70
47174;DHT22;36730;49.036;9.094;2024-02-15T08:24:03;25.00;56.50
47174;DHT22;36730;49.036;9.094;2024-02-15T08:26:33;25.10;56.50
47174;DHT22;36730;49.036;9.094;2024-02-15T08:29:01;25.10;56.40
47174;DHT22;36730;49.036;9.094;2024-02-15T08:31:26;25.10;56.90
47174;DHT22;36730;49.036;9.094;2024-02-15T08:33:52;25.10;57.10
47174;DHT22;36730;49.036;9.094;2024-02-15T08:36:18;25.10;57.00
47174;DHT22;36730;49.036;9.094;2024-02-15T08:38:44;25.10;57.60
47174;DHT22;36730;49.036;9.094;2024-02-15T08:41:11;25.20;57.30
47174;DHT22;36730;49.036;9.094;2024-02-15T08:43:37;25.20;58.20
47174;DHT22;36730;49.036;9.094;2024-02-15T08:46:05;25.20;58.40
47174;DHT22;36730;49.036;9.094;2024-02-15T08:48:31;25.30;57.60
47174;DHT22;36730;49.036;9.094;2024-02-15T08:50:57;25.30;57.70
47174;DHT22;36730;49.036;9.094;2024-02-15T08:53:23;25.40;57.70
47174;DHT22;36730;49.036;9.094;2024-02-15T08:55:49;25.40;58.50
47174;DHT22;36730;49.036;9.094;2024-02-15T08:58:15;25.40;57.00
47174;DHT22;36730;49.036;9.094;2024-02-15T09:00:40;25.50;56.30
47174;DHT22;36730;49.036;9.094;2024-02-15T09:03:10;25.50;57.00
47174;DHT22;36730;49.036;9.094;2024-02-15T09:05:35;25.50;57.50
47174;DHT22;36730;49.036;9.094;2024-02-15T09:08:01;25.50;57.70
47174;DHT22;36730;49.036;9.094;2024-02-15T09:10:26;25.50;56.60
47174;DHT22;36730;49.036;9.094;2024-02-15T09:12:52;25.60;56.90
47174;DHT22;36730;49.036;9.094;2024-02-15T09:15:17;25.60;55.60
47174;DHT22;36730;49.036;9.094;2024-02-15T09:17:43;25.60;56.00
47174;DHT22;36730;49.036;9.094;2024-02-15T09:20:11;25.70;56.20
47174;DHT22;36730;49.036;9.094;2024-02-15T09:23:01;25.60;55.50
47174;DHT22;36730;49.036;9.094;2024-02-15T09:25:29;25.50;54.60
47174;DHT22;36730;49.036;9.094;2024-02-15T09:27:56;25.30;54.30
47174;DHT22;36730;49.036;9.094;2024-02-15T09:30:22;25.10;54.60
47174;DHT22;36730;49.036;9.094;2024-02-15T09:32:50;25.10;55.20
47174;DHT22;36730;49.036;9.094;2024-02-15T09:35:15;24.70;53.30
47174;DHT22;36730;49.036;9.094;2024-02-15T09:37:47;24.50;54.50
47174;DHT22;36730;49.036;9.094;2024-02-15T09:40:16;24.30;55.20
47174;DHT22;36730;49.036;9.094;2024-02-15T09:42:43;24.20;55.20
47174;DHT22;36730;49.036;9.094;2024-02-15T09:45:12;24.20;55.40
47174;DHT22;36730;49.036;9.094;2024-02-15T09:47:38;24.30;55.40
47174;DHT22;36730;49.036;9.094;2024-02-15T09:50:07;24.30;55.60
47174;DHT22;36730;49.036;9.094;2024-02-15T09:52:33;24.30;55.50
47174;DHT22;36730;49.036;9.094;2024-02-15T09:55:04;24.30;55.20
47174;DHT22;36730;49.036;9.094;2024-02-15T09:57:30;24.30;55.40
47174;DHT22;36730;49.036;9.094;2024-02-15T09:59:58;24.20;55.10
47174;DHT22;36730;49.036;9.094;2024-02-15T10:02:25;24.20;55.10
47174;DHT22;36730;49.036;9.094;2024-02-15T10:04:52;24.20;55.80
47174;DHT22;36730;49.036;9.094;2024-02-15T10:07:17;24.20;55.40
47174;DHT22;36730;49.036;9.094;2024-02-15T10:09:43;24.20;55.90
47174;DHT22;36730;49.036;9.094;2024-02-15T10:12:09;24.20;55.80
47174;DHT22;36730;49.036;9.094;2024-02-15T10:14:34;24.20;55.80
47174;DHT22;36730;49.036;9.094;2024-02-15T10:17:06;24.20;56.20
47174;DHT22;36730;49.036;9.094;2024-02-15T10:19:37;24.20;56.50
47174;DHT22;36730;49.036;9.094;2024-02-15T10:22:06;24.40;56.40
47174;DHT22;36730;49.036;9.094;2024-02-15T10:24:31;24.50;55.90
47174;DHT22;36730;49.036;9.094;2024-02-15T10:27:00;24.60;55.30
47174;DHT22;36730;49.036;9.094;2024-02-15T10:29:26;24.60;54.90
47174;DHT22;36730;49.036;9.094;2024-02-15T10:31:52;24.60;54.30
47174;DHT22;36730;49.036;9.094;2024-02-15T10:34:18;24.60;55.30
47174;DHT22;36730;49.036;9.094;2024-02-15T10:36:45;24.70;55.30
47174;DHT22;36730;49.036;9.094;2024-02-15T10:39:11;24.80;54.80
47174;DHT22;36730;49.036;9.094;2024-02-15T10:41:59;24.90;54.80
47174;DHT22;36730;49.036;9.094;2024-02-15T10:44:25;24.90;55.40
47174;DHT22;36730;49.036;9.094;2024-02-15T10:46:52;25.00;55.50
47174;DHT22;36730;49.036;9.094;2024-02-15T10:49:18;25.00;55.50
47174;DHT22;36730;49.036;9.094;2024-02-15T10:51:48;25.10;55.30
47174;DHT22;36730;49.036;9.094;2024-02-15T10:54:15;25.10;55.60
47174;DHT22;36730;49.036;9.094;2024-02-15T10:56:45;25.20;55.70
47174;DHT22;36730;49.036;9.094;2024-02-15T11:01:40;25.30;55.40
47174;DHT22;36730;49.036;9.094;2024-02-15T11:04:07;25.30;55.90
47174;DHT22;36730;49.036;9.094;2024-02-15T11:06:33;25.40;55.30
47174;DHT22;36730;49.036;9.094;2024-02-15T11:09:00;25.40;55.70
47174;DHT22;36730;49.036;9.094;2024-02-15T11:11:26;25.40;55.20
47174;DHT22;36730;49.036;9.094;2024-02-15T11:14:22;25.50;55.00
47174;DHT22;36730;49.036;9.094;2024-02-15T11:16:44;25.50;55.00
47174;DHT22;36730;49.036;9.094;2024-02-15T11:19:21;25.60;54.90
47174;DHT22;36730;49.036;9.094;2024-02-15T11:21:56;25.60;54.60
47174;DHT22;36730;49.036;9.094;2024-02-15T11:24:26;25.70;54.40
47174;DHT22;36730;49.036;9.094;2024-02-15T11:26:53;25.70;54.80
47174;DHT22;36730;49.036;9.094;2024-02-15T11:32:06;25.80;54.30
47174;DHT22;36730;49.036;9.094;2024-02-15T11:34:44;25.80;53.50
47174;DHT22;36730;49.036;9.094;2024-02-15T11:39:58;25.80;53.50
47174;DHT22;36730;49.036;9.094;2024-02-15T11:42:30;25.80;52.70
47174;DHT22;36730;49.036;9.094;2024-02-15T11:45:05;25.80;52.70
47174;DHT22;36730;49.036;9.094;2024-02-15T11:47:36;25.90;52.90
47174;DHT22;36730;49.036;9.094;2024-02-15T11:50:02;25.90;52.80
47174;DHT22;36730;49.036;9.094;2024-02-15T11:52:28;25.90;52.50
47174;DHT22;36730;49.036;9.094;2024-02-15T11:54:53;25.90;52.40
47174;DHT22;36730;49.036;9.094;2024-02-15T11:57:19;25.90;53.40
47174;DHT22;36730;49.036;9.094;2024-02-15T12:00:01;25.90;52.50
47174;DHT22;36730;49.036;9.094;2024-02-15T12:03:03;26.00;52.40
47174;DHT22;36730;49.036;9.094;2024-02-15T12:05:48;26.00;52.30
47174;DHT22;36730;49.036;9.094;2024-02-15T12:08:33;26.10;52.30
47174;DHT22;36730;49.036;9.094;2024-02-15T12:11:17;26.10;52.50
47174;DHT22;36730;49.036;9.094;2024-02-15T12:14:01;26.10;52.40
47174;DHT22;36730;49.036;9.094;2024-02-15T12:16:45;26.10;52.40
47174;DHT22;36730;49.036;9.094;2024-02-15T12:19:30;26.10;52.20
47174;DHT22;36730;49.036;9.094;2024-02-15T12:21:55;26.20;52.20
47174;DHT22;36730;49.036;9.094;2024-02-15T12:24:22;26.20;52.10
47174;DHT22;36730;49.036;9.094;2024-02-15T12:26:55;26.20;52.80
47174;DHT22;36730;49.036;9.094;2024-02-15T12:29:24;26.30;52.70
47174;DHT22;36730;49.036;9.094;2024-02-15T12:31:50;26.20;52.20
47174;DHT22;36730;49.036;9.094;2024-02-15T12:34:16;26.30;51.70
47174;DHT22;36730;49.036;9.094;2024-02-15T12:36:45;26.20;52.20
47174;DHT22;36730;49.036;9.094;2024-02-15T12:39:11;26.30;51.60
47174;DHT22;36730;49.036;9.094;2024-02-15T12:41:41;26.30;51.70
47174;DHT22;36730;49.036;9.094;2024-02-15T12:44:07;26.30;51.20
47174;DHT22;36730;49.036;9.094;2024-02-15T12:46:33;26.30;51.20
47174;DHT22;36730;49.036;9.094;2024-02-15T12:51:50;26.30;51.50
47174;DHT22;36730;49.036;9.094;2024-02-15T12:54:20;26.30;51.40
47174;DHT22;36730;49.036;9.094;2024-02-15T12:56:46;26.30;51.40
47174;DHT22;36730;49.036;9.094;2024-02-15T12:59:14;26.30;51.20
47174;DHT22;36730;49.036;9.094;2024-02-15T13:01:39;26.30;50.90
47174;DHT22;36730;49.036;9.094;2024-02-15T13:04:05;26.30;50.90
47174;DHT22;36730;49.036;9.094;2024-02-15T13:06:31;26.30;50.70
47174;DHT22;36730;49.036;9.094;2024-02-15T13:09:00;26.30;50.80
47174;DHT22;36730;49.036;9.094;2024-02-15T13:11:27;26.30;50.50
47174;DHT22;36730;49.036;9.094;2024-02-15T13:13:52;26.30;51.00
47174;DHT22;36730;49.036;9.094;2024-02-15T13:16:20;26.30;50.70
47174;DHT22;36730;49.036;9.094;2024-02-15T13:18:45;26.40;50.90
47174;DHT22;36730;49.036;9.094;2024-02-15T13:21:12;26.40;50.80
47174;DHT22;36730;49.036;9.094;2024-02-15T13:23:37;26.40;51.00
47174;DHT22;36730;49.036;9.094;2024-02-15T13:26:03;26.40;52.20
47174;DHT22;36730;49.036;9.094;2024-02-15T13:28:30;26.40;50.80
47174;DHT22;36730;49.036;9.094;2024-02-15T13:30:55;26.40;51.00
47174;DHT22;36730;49.036;9.094;2024-02-15T13:33:21;26.40;52.30
47174;DHT22;36730;49.036;9.094;2024-02-15T13:35:47;26.40;51.70
47174;DHT22;36730;49.036;9.094;2024-02-15T13:38:14;26.40;51.30
47174;DHT22;36730;49.036;9.094;2024-02-15T13:40:47;26.40;51.00
47174;DHT22;36730;49.036;9.094;2024-02-15T13:43:14;26.40;51.10
47174;DHT22;36730;49.036;9.094;2024-02-15T13:45:42;26.40;51.60
47174;DHT22;36730;49.036;9.094;2024-02-15T13:48:09;26.40;51.30
47174;DHT22;36730;49.036;9.094;2024-02-15T13:50:35;26.40;51.60
47174;DHT22;36730;49.036;9.094;2024-02-15T13:53:01;26.40;51.50
47174;DHT22;36730;49.036;9.094;2024-02-15T13:55:27;26.40;51.30
47174;DHT22;36730;49.036;9.094;2024-02-15T13:57:53;26.40;51.30
47174;DHT22;36730;49.036;9.094;2024-02-15T14:00:19;26.40;51.20
47174;DHT22;36730;49.036;9.094;2024-02-15T14:02:48;26.40;51.20
47174;DHT22;36730;49.036;9.094;2024-02-15T14:05:14;26.40;51.00
47174;DHT22;36730;49.036;9.094;2024-02-15T14:07:39;26.40;51.20
47174;DHT22;36730;49.036;9.094;2024-02-15T14:10:05;26.40;51.10
47174;DHT22;36730;49.036;9.094;2024-02-15T14:12:31;26.50;51.20
47174;DHT22;36730;49.036;9.094;2024-02-15T14:14:56;26.50;51.30
47174;DHT22;36730;49.036;9.094;2024-02-15T14:17:22;26.60;51.20
47174;DHT22;36730;49.036;9.094;2024-02-15T14:19:48;26.60;51.10
47174;DHT22;36730;49.036;9.094;2024-02-15T14:22:13;26.70;50.90
47174;DHT22;36730;49.036;9.094;2024-02-15T14:24:41;26.70;51.40
47174;DHT22;36730;49.036;9.094;2024-02-15T14:27:08;26.80;51.70
47174;DHT22;36730;49.036;9.094;2024-02-15T14:29:34;26.80;51.90
47174;DHT22;36730;49.036;9.094;2024-02-15T14:32:03;26.90;51.70
47174;DHT22;36730;49.036;9.094;2024-02-15T14:35:00;26.90;50.50
47174;DHT22;36730;49.036;9.094;2024-02-15T14:37:26;26.90;51.40
47174;DHT22;36730;49.036;9.094;2024-02-15T14:39:53;26.90;51.60
47174;DHT22;36730;49.036;9.094;2024-02-15T14:42:19;26.90;51.80
47174;DHT22;36730;49.036;9.094;2024-02-15T14:44:47;27.00;51.60
47174;DHT22;36730;49.036;9.094;2024-02-15T14:47:12;27.00;51.50
47174;DHT22;36730;49.036;9.094;2024-02-15T14:49:37;27.00;50.70
47174;DHT22;36730;49.036;9.094;2024-02-15T14:52:04;27.00;51.50
47174;DHT22;36730;49.036;9.094;2024-02-15T14:54:30;27.00;52.00
47174;DHT22;36730;49.036;9.094;2024-02-15T14:56:55;27.00;52.50
47174;DHT22;36730;49.036;9.094;2024-02-15T14:59:22;27.10;52.10
47174;DHT22;36730;49.036;9.094;2024-02-15T15:01:47;27.10;51.60
47174;DHT22;36730;49.036;9.094;2024-02-15T15:04:13;27.10;51.90
47174;DHT22;36730;49.036;9.094;2024-02-15T15:06:38;27.10;51.80
47174;DHT22;36730;49.036;9.094;2024-02-15T15:09:23;27.10;51.70
47174;DHT22;36730;49.036;9.094;2024-02-15T15:12:07;27.10;52.00
47174;DHT22;36730;49.036;9.094;2024-02-15T15:14:51;27.20;51.00
47174;DHT22;36730;49.036;9.094;2024-02-15T15:17:17;27.20;51.20
47174;DHT22;36730;49.036;9.094;2024-02-15T15:19:46;27.20;51.40
47174;DHT22;36730;49.036;9.094;2024-02-15T15:22:11;27.20;51.60
47174;DHT22;36730;49.036;9.094;2024-02-15T15:24:37;27.20;52.10
47174;DHT22;36730;49.036;9.094;2024-02-15T15:27:02;27.20;51.50
47174;DHT22;36730;49.036;9.094;2024-02-15T15:29:30;27.20;51.90
47174;DHT22;36730;49.036;9.094;2024-02-15T15:31:56;27.20;51.70
47174;DHT22;36730;49.036;9.094;2024-02-15T15:34:22;27.20;52.10
47174;DHT22;36730;49.036;9.094;2024-02-15T15:36:48;27.20;52.20
47174;DHT22;36730;49.036;9.094;2024-02-15T15:39:14;27.20;52.20
47174;DHT22;36730;49.036;9.094;2024-02-15T15:41:43;27.20;52.20